Time;durP1;ratioP1;P1;durP2;ratioP2;P2;SDS_P1;SDS_P2;PMS_P1;PMS_P2;Temp;Humidity;BMP_temperature;BMP_pressure;BME280_temperature;BME280_humidity;BME280_pressure;Samples;Min_cycle;Max_cycle;Signal;HPM_P1;HPM_P2
2022/08/09 00:00:14;;;;;;;2.42;1.32;;;25.00;88.10;;;;;;1917714;75;21059;-86
2022/08/09 00:03:18;;;;;;;2.22;1.57;;;25.10;88.00;;;;;;1925063;73;21047;-87
2022/08/09 00:06:16;;;;;;;2.33;1.50;;;25.10;87.90;;;;;;1928721;73;21194;-87
2022/08/09 00:09:09;;;;;;;2.58;1.70;;;25.10;87.60;;;;;;1929158;73;21205;-87
2022/08/09 00:12:00;;;;;;;2.33;1.85;;;25.10;87.60;;;;;;1932480;73;21051;-88
2022/08/09 00:14:53;;;;;;;2.02;1.50;;;25.10;87.80;;;;;;1918495;73;21074;-88
2022/08/09 00:17:46;;;;;;;2.05;1.60;;;25.10;89.50;;;;;;1940283;73;21093;-88
2022/08/09 00:20:43;;;;;;;1.50;1.40;;;24.90;89.90;;;;;;1939761;73;21122;-83
2022/08/09 00:26:21;;;;;;;1.72;1.60;;;24.90;90.10;;;;;;1928652;72;22138;-87
2022/08/09 00:29:14;;;;;;;1.60;1.50;;;24.90;90.10;;;;;;1927321;74;21074;-88
2022/08/09 00:32:07;;;;;;;1.80;1.70;;;24.90;90.10;;;;;;1880586;76;21217;-88
2022/08/09 00:35:00;;;;;;;6.03;2.12;;;24.90;90.10;;;;;;1916295;74;21050;-88
2022/08/09 00:37:51;;;;;;;4.22;2.10;;;24.90;90.20;;;;;;1901332;75;21058;-88
2022/08/09 00:40:51;;;;;;;2.15;1.80;;;24.90;90.30;;;;;;1921952;74;21093;-87
2022/08/09 00:46:28;;;;;;;3.58;1.90;;;24.90;90.30;;;;;;1957190;72;22248;-88
2022/08/09 00:55:02;;;;;;;1.90;1.60;;;24.80;90.70;;;;;;1947221;72;22172;-86
2022/08/09 00:57:54;;;;;;;1.77;1.40;;;24.80;91.20;;;;;;1884675;75;21175;-86
2022/08/09 01:00:48;;;;;;;2.77;1.70;;;24.70;91.50;;;;;;1884786;75;21483;-87
2022/08/09 01:06:27;;;;;;;3.10;1.90;;;24.70;91.80;;;;;;1948065;72;22195;-88
2022/08/09 01:09:25;;;;;;;2.72;1.70;;;24.70;91.80;;;;;;1938224;73;21176;-88
2022/08/09 01:12:21;;;;;;;2.55;1.50;;;24.60;92.10;;;;;;1921531;73;21068;-88
2022/08/09 01:15:16;;;;;;;4.20;1.57;;;24.50;92.20;;;;;;1943729;73;21140;-86
2022/08/09 01:21:00;;;;;;;2.50;1.40;;;24.50;92.20;;;;;;1948488;72;22166;-85
2022/08/09 01:24:03;;;;;;;2.62;1.50;;;24.50;92.30;;;;;;1936221;73;21059;-85
2022/08/09 01:26:59;;;;;;;3.02;1.57;;;24.40;92.50;;;;;;1932274;73;21066;-87
2022/08/09 01:29:54;;;;;;;1.85;1.57;;;24.40;92.50;;;;;;1870124;76;21170;-87
2022/08/09 01:32:49;;;;;;;2.10;1.60;;;24.40;92.80;;;;;;1917738;75;21156;-87
2022/08/09 01:35:44;;;;;;;1.72;1.62;;;24.40;92.80;;;;;;1925468;73;21156;-87
2022/08/09 01:38:39;;;;;;;2.87;1.50;;;24.40;93.10;;;;;;1917779;73;21161;-87
2022/08/09 01:41:34;;;;;;;1.57;1.47;;;24.30;94.10;;;;;;1880604;76;21113;-87
2022/08/09 01:44:27;;;;;;;4.42;1.50;;;24.20;94.10;;;;;;1890886;75;21066;-87
2022/08/09 01:47:21;;;;;;;2.02;1.40;;;24.20;94.10;;;;;;1917788;73;21138;-87
2022/08/09 01:50:13;;;;;;;2.10;1.80;;;24.20;93.90;;;;;;1923895;73;21109;-87
2022/08/09 01:53:08;;;;;;;2.95;1.82;;;24.10;93.80;;;;;;1888677;75;21109;-87
2022/08/09 01:56:04;;;;;;;1.60;1.42;;;24.10;93.90;;;;;;1927609;73;21550;-88
2022/08/09 01:59:05;;;;;;;1.85;1.75;;;24.00;94.00;;;;;;1945032;73;21852;-88
2022/08/09 02:01:58;;;;;;;2.47;1.40;;;24.00;94.10;;;;;;1930838;73;21039;-87
2022/08/09 02:04:53;;;;;;;2.52;1.57;;;23.90;94.30;;;;;;1925194;73;21201;-88
2022/08/09 02:10:29;;;;;;;1.80;1.70;;;23.90;94.50;;;;;;1958651;72;22142;-85
2022/08/09 02:13:23;;;;;;;2.98;1.80;;;23.80;94.60;;;;;;1917545;75;21055;-87
2022/08/09 02:16:16;;;;;;;1.62;1.45;;;23.90;94.50;;;;;;1917708;75;21118;-86
2022/08/09 02:19:09;;;;;;;1.87;1.60;;;23.80;94.70;;;;;;1920039;73;21101;-85
2022/08/09 02:22:05;;;;;;;1.72;1.40;;;23.70;95.00;;;;;;1929443;73;21106;-85
2022/08/09 02:25:00;;;;;;;2.42;1.50;;;23.70;95.10;;;;;;1918783;73;21098;-86
2022/08/09 02:27:56;;;;;;;2.92;1.70;;;23.70;95.40;;;;;;1917576;73;21101;-85
2022/08/09 02:30:52;;;;;;;3.05;1.75;;;23.70;95.70;;;;;;1920366;75;21059;-92
2022/08/09 02:33:46;;;;;;;3.58;1.70;;;23.70;96.00;;;;;;1918430;75;21052;-90
2022/08/09 02:36:41;;;;;;;1.92;1.82;;;23.60;96.20;;;;;;1922011;73;21102;-86
2022/08/09 02:39:36;;;;;;;2.10;1.55;;;23.60;96.30;;;;;;1919154;73;21627;-88
2022/08/09 02:42:33;;;;;;;1.60;1.40;;;23.60;96.40;;;;;;1917876;75;21098;-88
2022/08/09 02:45:28;;;;;;;1.55;1.45;;;23.50;97.20;;;;;;1920006;73;21086;-88
2022/08/09 02:48:21;;;;;;;1.85;1.32;;;23.40;97.30;;;;;;1917577;75;21136;-87
2022/08/09 02:51:17;;;;;;;1.80;1.55;;;23.40;98.00;;;;;;1917705;75;21119;-87
2022/08/09 02:54:13;;;;;;;5.33;1.80;;;23.30;98.20;;;;;;1917465;73;21042;-88
2022/08/09 02:57:05;;;;;;;1.62;1.52;;;23.30;98.20;;;;;;1917791;73;21157;-83
2022/08/09 02:59:59;;;;;;;1.87;1.77;;;23.30;98.10;;;;;;1917657;75;21068;-84
2022/08/09 03:02:55;;;;;;;2.52;2.10;;;23.30;98.20;;;;;;1917618;75;21140;-91
2022/08/09 03:05:49;;;;;;;1.65;1.20;;;23.30;98.20;;;;;;1919441;75;21158;-92
2022/08/09 03:08:43;;;;;;;1.65;1.55;;;23.40;98.00;;;;;;1919775;75;21125;-93
2022/08/09 03:11:36;;;;;;;1.50;1.20;;;23.40;98.00;;;;;;1919710;75;21055;-93
2022/08/09 03:14:30;;;;;;;1.67;1.35;;;23.30;98.20;;;;;;1919101;75;21102;-93
2022/08/09 03:17:23;;;;;;;3.72;1.57;;;23.30;98.20;;;;;;1919256;75;21164;-93
2022/08/09 03:20:17;;;;;;;1.40;1.30;;;23.30;98.30;;;;;;1918801;75;21179;-93
2022/08/09 03:23:12;;;;;;;3.25;1.40;;;23.20;98.30;;;;;;1917693;73;21070;-87
2022/08/09 03:26:06;;;;;;;1.60;1.20;;;23.30;98.30;;;;;;1917074;75;21165;-87
2022/08/09 03:28:59;;;;;;;1.98;1.20;;;23.20;98.30;;;;;;1916393;73;21156;-86
2022/08/09 03:31:51;;;;;;;3.98;1.32;;;23.20;98.40;;;;;;1916880;75;21124;-87
2022/08/09 03:34:44;;;;;;;1.77;1.40;;;23.20;98.50;;;;;;1916736;75;21268;-87
2022/08/09 03:37:37;;;;;;;1.72;1.30;;;23.20;98.70;;;;;;1916792;75;21225;-87
2022/08/09 03:40:30;;;;;;;1.77;1.55;;;23.10;99.30;;;;;;1934504;73;21211;-87
2022/08/09 03:43:21;;;;;;;2.45;1.57;;;23.00;99.60;;;;;;1916924;75;21095;-88
2022/08/09 03:46:13;;;;;;;3.00;1.77;;;23.00;99.60;;;;;;1916935;75;21058;-86
2022/08/09 03:49:06;;;;;;;2.20;1.70;;;23.00;99.80;;;;;;1924733;73;21159;-86
2022/08/09 03:52:00;;;;;;;3.00;1.72;;;23.00;99.90;;;;;;1916949;75;21668;-87
2022/08/09 03:54:55;;;;;;;2.08;1.62;;;22.90;99.90;;;;;;1923677;73;21111;-88
2022/08/09 04:00:27;;;;;;;1.70;1.60;;;22.80;99.90;;;;;;1954326;72;22255;-85
2022/08/09 04:03:18;;;;;;;2.83;1.90;;;22.80;99.90;;;;;;1917352;73;21140;-85
2022/08/09 04:06:11;;;;;;;2.40;2.20;;;22.80;99.90;;;;;;1917350;73;21107;-85
2022/08/09 04:09:05;;;;;;;1.90;1.77;;;22.80;99.90;;;;;;1928414;73;21042;-87
2022/08/09 04:12:21;;;;;;;2.77;2.12;;;22.80;99.90;;;;;;1917815;75;21196;-89
2022/08/09 04:15:15;;;;;;;2.83;2.20;;;22.80;99.90;;;;;;1917914;75;21134;-90
2022/08/09 04:18:16;;;;;;;2.20;2.00;;;22.80;99.90;;;;;;1929692;73;21087;-90
2022/08/09 04:21:11;;;;;;;2.62;2.00;;;22.80;99.90;;;;;;1919297;73;21055;-89
2022/08/09 04:24:03;;;;;;;2.40;2.00;;;22.80;99.90;;;;;;1924959;73;21160;-90
2022/08/09 04:26:55;;;;;;;2.67;2.05;;;22.80;99.90;;;;;;1917878;75;21066;-89
2022/08/09 04:29:47;;;;;;;4.97;2.00;;;22.80;99.90;;;;;;1931110;73;21063;-84
2022/08/09 04:35:18;;;;;;;3.60;1.98;;;22.80;99.90;;;;;;1941707;72;22124;-84
2022/08/09 04:40:51;;;;;;;3.90;1.82;;;22.80;99.90;;;;;;1933510;72;22166;-85
2022/08/09 04:43:55;;;;;;;2.15;1.80;;;22.70;99.90;;;;;;1886534;74;21078;-85
2022/08/09 04:46:48;;;;;;;4.20;2.10;;;22.70;99.90;;;;;;1887277;75;21228;-85
2022/08/09 04:52:21;;;;;;;2.58;2.15;;;22.70;99.90;;;;;;1943870;72;22159;-85
2022/08/09 04:55:14;;;;;;;2.17;2.02;;;22.70;99.90;;;;;;1917494;75;21050;-83
2022/08/09 04:58:07;;;;;;;3.50;1.85;;;22.60;99.90;;;;;;1917564;75;21055;-85
2022/08/09 05:01:00;;;;;;;2.72;2.33;;;22.60;99.90;;;;;;1936880;73;21101;-84
2022/08/09 05:03:50;;;;;;;4.75;1.92;;;22.60;99.90;;;;;;1923207;73;21105;-84
2022/08/09 05:06:43;;;;;;;3.85;1.60;;;22.60;99.90;;;;;;1920743;73;21047;-84
2022/08/09 05:09:36;;;;;;;3.85;2.17;;;22.60;99.90;;;;;;1925250;73;21090;-84
2022/08/09 05:12:29;;;;;;;2.12;2.02;;;22.60;99.90;;;;;;1926783;73;21062;-84
2022/08/09 05:15:23;;;;;;;2.85;2.25;;;22.70;99.90;;;;;;1917613;75;21228;-84
2022/08/09 05:18:15;;;;;;;2.72;2.10;;;22.60;99.90;;;;;;1929618;73;21047;-84
2022/08/09 05:21:11;;;;;;;3.70;2.33;;;22.60;99.90;;;;;;1929729;73;21307;-86
2022/08/09 05:24:08;;;;;;;2.70;2.08;;;22.70;99.90;;;;;;1925755;73;21149;-85
2022/08/09 05:26:59;;;;;;;4.80;2.62;;;22.70;99.90;;;;;;1932978;73;21122;-86
2022/08/09 05:29:59;;;;;;;7.50;2.47;;;22.70;99.90;;;;;;1935576;73;21172;-89
2022/08/09 05:32:52;;;;;;;4.92;2.70;;;22.70;99.90;;;;;;1918739;73;21080;-85
2022/08/09 05:35:45;;;;;;;2.70;2.50;;;22.70;99.90;;;;;;1917185;75;21160;-86
2022/08/09 05:38:38;;;;;;;2.35;1.82;;;22.80;99.90;;;;;;1929708;73;21132;-85
2022/08/09 05:44:10;;;;;;;2.30;1.67;;;22.90;99.90;;;;;;1937763;72;22609;-86
2022/08/09 05:47:03;;;;;;;1.95;1.77;;;22.90;99.90;;;;;;1904315;75;21120;-88
2022/08/09 05:49:56;;;;;;;3.40;1.70;;;23.00;99.90;;;;;;1894832;75;21605;-87
2022/08/09 05:52:49;;;;;;;1.55;1.45;;;23.10;99.90;;;;;;1902836;75;21150;-88
2022/08/09 05:55:42;;;;;;;2.40;1.90;;;23.10;99.90;;;;;;1899555;75;21199;-88
2022/08/09 06:16:10;;;;;;;3.52;1.85;;;23.20;99.90;;;;;;1912238;75;21175;-92
2022/08/09 06:19:02;;;;;;;3.27;1.90;;;23.20;99.90;;;;;;1996802;71;21074;-77
2022/08/09 06:21:58;;;;;;;4.10;1.90;;;23.30;99.90;;;;;;2006158;71;21166;-77
2022/08/09 06:27:36;;;;;;;4.22;1.90;;;23.40;99.90;;;;;;1948570;72;22150;-79
2022/08/09 06:33:09;;;;;;;5.42;2.17;;;23.50;99.90;;;;;;1960534;72;22243;-80
2022/08/09 06:36:02;;;;;;;4.60;2.08;;;23.60;99.90;;;;;;1931773;73;21107;-79
2022/08/09 06:38:55;;;;;;;6.40;2.67;;;23.60;99.90;;;;;;1940462;73;21081;-80
2022/08/09 06:41:47;;;;;;;5.50;2.10;;;23.60;99.90;;;;;;1941213;73;21078;-78
2022/08/09 06:44:40;;;;;;;6.17;2.33;;;23.60;99.90;;;;;;1943190;73;21122;-77
2022/08/09 06:50:12;;;;;;;6.12;2.40;;;23.70;99.90;;;;;;1946317;72;22087;-80
2022/08/09 06:53:05;;;;;;;3.17;2.75;;;23.80;99.90;;;;;;1919453;73;21089;-80
2022/08/09 06:55:58;;;;;;;3.35;2.27;;;23.90;99.90;;;;;;1926170;73;21044;-80
2022/08/09 06:58:49;;;;;;;5.95;2.40;;;24.00;99.90;;;;;;1919321;73;21116;-77
2022/08/09 07:01:41;;;;;;;5.50;2.60;;;24.00;99.90;;;;;;1937103;73;21148;-80
2022/08/09 07:04:36;;;;;;;8.03;2.45;;;24.10;99.90;;;;;;1937592;73;21094;-80
2022/08/09 07:07:27;;;;;;;143.43;117.93;;;24.10;99.90;;;;;;1917442;75;21208;-76
2022/08/09 07:10:20;;;;;;;40.05;29.57;;;24.20;99.90;;;;;;1926066;73;21164;-82
2022/08/09 07:15:57;;;;;;;6.62;2.08;;;24.30;99.90;;;;;;1951387;72;22241;-77
2022/08/09 07:18:49;;;;;;;6.03;2.22;;;24.40;99.90;;;;;;1917512;73;21555;-78
2022/08/09 07:21:44;;;;;;;2.90;1.90;;;24.40;99.90;;;;;;1905244;75;21136;-83
2022/08/09 07:24:39;;;;;;;4.00;2.33;;;24.50;99.90;;;;;;1912798;74;21191;-78
2022/08/09 07:27:31;;;;;;;2.70;1.67;;;24.50;99.90;;;;;;1872742;75;21096;-78
2022/08/09 07:30:35;;;;;;;2.85;1.95;;;24.60;99.90;;;;;;1907340;74;21095;-78
2022/08/09 07:33:28;;;;;;;3.30;1.60;;;24.70;99.90;;;;;;1906662;74;21108;-78
2022/08/09 07:36:20;;;;;;;6.72;2.02;;;24.70;99.90;;;;;;1919528;74;21122;-77
2022/08/09 07:41:53;;;;;;;3.02;2.05;;;24.80;99.90;;;;;;1936219;72;22173;-80
2022/08/09 07:44:46;;;;;;;2.30;1.90;;;24.90;99.90;;;;;;1885412;75;21173;-81
2022/08/09 07:50:20;;;;;;;3.62;1.80;;;25.00;99.90;;;;;;1918480;72;22252;-82
2022/08/09 07:53:13;;;;;;;2.42;1.80;;;25.10;99.90;;;;;;1904314;75;21068;-84
2022/08/09 07:56:06;;;;;;;3.45;1.70;;;25.10;99.90;;;;;;1908401;75;21078;-84
2022/08/09 07:59:00;;;;;;;2.70;1.95;;;25.20;99.90;;;;;;1911744;75;21172;-84
2022/08/09 08:01:52;;;;;;;3.55;2.22;;;25.30;99.90;;;;;;1910077;75;21582;-83
2022/08/09 08:07:25;;;;;;;2.30;1.80;;;25.40;99.90;;;;;;1935425;72;22216;-79
2022/08/09 08:10:18;;;;;;;2.37;1.75;;;25.40;99.90;;;;;;1904993;75;21059;-80
2022/08/09 08:13:16;;;;;;;3.00;1.80;;;25.50;99.90;;;;;;1927253;74;21056;-79
2022/08/09 08:16:16;;;;;;;2.02;1.85;;;25.60;99.90;;;;;;1915715;74;21087;-78
2022/08/09 08:19:09;;;;;;;4.20;1.70;;;25.70;99.90;;;;;;1920180;74;21888;-79
2022/08/09 08:22:00;;;;;;;2.83;1.85;;;25.70;99.90;;;;;;1919943;74;21122;-82
2022/08/09 08:24:55;;;;;;;3.87;2.20;;;25.80;99.90;;;;;;1918888;74;21113;-80
2022/08/09 08:30:30;;;;;;;2.80;1.98;;;26.10;99.90;;;;;;1938287;72;22130;-78
2022/08/09 08:33:23;;;;;;;3.58;2.12;;;26.20;99.90;;;;;;1909356;75;21060;-78
2022/08/09 08:38:56;;;;;;;3.67;1.80;;;26.20;99.90;;;;;;1933247;72;22212;-78
2022/08/09 08:41:47;;;;;;;3.80;1.90;;;26.30;99.90;;;;;;1912483;75;21098;-78
2022/08/09 08:44:41;;;;;;;2.85;2.00;;;26.40;99.90;;;;;;1914442;75;21645;-77
2022/08/09 08:47:32;;;;;;;4.60;2.10;;;26.40;99.90;;;;;;1914582;75;21035;-77
2022/08/09 08:50:26;;;;;;;2.35;2.10;;;26.40;99.90;;;;;;1916051;75;21051;-77
2022/08/09 08:53:17;;;;;;;4.45;1.90;;;26.50;99.90;;;;;;1910752;75;21085;-77
2022/08/09 08:56:11;;;;;;;4.35;1.87;;;26.60;99.90;;;;;;1911882;75;21561;-78
2022/08/09 08:59:07;;;;;;;2.60;2.20;;;26.70;99.90;;;;;;1912863;75;21110;-78
2022/08/09 09:02:01;;;;;;;4.10;2.25;;;26.90;99.90;;;;;;1907322;75;21239;-77
2022/08/09 09:04:55;;;;;;;5.87;1.98;;;27.00;99.90;;;;;;1909908;75;21150;-78
2022/08/09 09:10:35;;;;;;;2.17;1.80;;;27.10;99.90;;;;;;1944733;72;22130;-78
2022/08/09 09:13:30;;;;;;;2.80;2.42;;;27.20;99.90;;;;;;1923043;74;21107;-78
2022/08/09 09:16:22;;;;;;;3.87;2.40;;;27.20;99.90;;;;;;1917034;75;21055;-77
2022/08/09 09:19:16;;;;;;;2.90;2.37;;;27.20;99.90;;;;;;1904984;75;21091;-77
2022/08/09 09:22:10;;;;;;;4.45;2.00;;;27.30;99.90;;;;;;1917176;75;21138;-77
2022/08/09 09:25:03;;;;;;;2.90;2.60;;;27.40;99.90;;;;;;1913544;74;21127;-77
2022/08/09 09:27:58;;;;;;;2.65;2.20;;;27.40;99.90;;;;;;1916786;75;21125;-78
2022/08/09 09:30:56;;;;;;;5.35;1.70;;;27.50;99.90;;;;;;1932086;73;21095;-78
2022/08/09 09:33:48;;;;;;;3.80;2.12;;;27.50;99.90;;;;;;1916861;74;21091;-78
2022/08/09 09:39:22;;;;;;;3.33;2.10;;;27.60;99.90;;;;;;1944066;72;22091;-78
2022/08/09 09:45:04;;;;;;;3.35;1.87;;;27.80;99.60;;;;;;1934819;72;22146;-81
2022/08/09 09:50:45;;;;;;;4.87;2.15;;;27.90;98.80;;;;;;1936409;72;22194;-80
2022/08/09 09:56:20;;;;;;;4.53;2.15;;;28.10;98.60;;;;;;1953334;72;22212;-83
2022/08/09 10:02:08;;;;;;;2.27;1.90;;;28.10;97.80;;;;;;1936788;72;22559;-81
2022/08/09 10:05:20;;;;;;;3.80;2.17;;;28.10;97.70;;;;;;1901771;75;21091;-82
2022/08/09 10:10:53;;;;;;;3.25;2.10;;;28.10;97.40;;;;;;1937844;72;22189;-81
2022/08/09 10:13:46;;;;;;;3.30;1.98;;;28.20;96.80;;;;;;1940516;73;21564;-79
2022/08/09 10:16:39;;;;;;;4.30;2.12;;;28.20;96.60;;;;;;1931331;73;21044;-76
2022/08/09 10:19:37;;;;;;;5.10;2.20;;;28.20;96.30;;;;;;1928337;73;21112;-76
2022/08/09 10:22:34;;;;;;;3.72;2.00;;;28.20;96.20;;;;;;1940831;73;21147;-76
2022/08/09 10:25:28;;;;;;;4.83;2.27;;;28.20;96.30;;;;;;1929267;73;21056;-80
2022/08/09 10:28:21;;;;;;;4.12;1.90;;;28.30;96.00;;;;;;1923498;73;21120;-78
2022/08/09 10:31:15;;;;;;;3.47;1.80;;;28.50;94.90;;;;;;1929815;73;21062;-78
2022/08/09 10:34:16;;;;;;;2.77;1.82;;;28.60;94.70;;;;;;1932700;73;21058;-82
2022/08/09 10:37:18;;;;;;;3.08;1.80;;;28.70;94.30;;;;;;1928720;73;21094;-84
2022/08/09 10:40:11;;;;;;;3.12;1.80;;;28.80;94.10;;;;;;1947984;73;21520;-82
2022/08/09 10:45:49;;;;;;;2.22;2.02;;;28.80;93.60;;;;;;1948899;72;22526;-79
2022/08/09 10:48:46;;;;;;;3.67;1.60;;;28.90;93.30;;;;;;1939895;73;21179;-79
2022/08/09 10:51:44;;;;;;;2.22;1.77;;;29.10;92.90;;;;;;1929070;73;21137;-78
2022/08/09 10:54:37;;;;;;;5.30;2.05;;;29.10;92.20;;;;;;1917828;73;21162;-78
2022/08/09 11:00:44;;;;;;;3.12;2.40;;;29.30;92.10;;;;;;1943971;72;22257;-79
2022/08/09 11:03:54;;;;;;;5.58;2.87;;;29.50;91.90;;;;;;1897558;75;21152;-78
2022/08/09 11:06:50;;;;;;;5.10;2.42;;;29.50;91.80;;;;;;1905732;75;21597;-79
2022/08/09 11:09:52;;;;;;;3.37;2.80;;;29.50;90.60;;;;;;1908454;74;21220;-79
2022/08/09 11:13:05;;;;;;;4.65;3.27;;;29.60;90.40;;;;;;1874524;76;21208;-79
2022/08/09 11:16:24;;;;;;;8.68;2.83;;;29.70;90.60;;;;;;1909373;74;21070;-79
2022/08/09 11:19:19;;;;;;;6.72;3.45;;;29.90;88.10;;;;;;1905114;75;21179;-79
2022/08/09 11:25:10;;;;;;;3.40;2.70;;;30.10;89.80;;;;;;1940684;72;22108;-79
2022/08/09 11:30:41;;;;;;;3.55;2.37;;;30.20;87.10;;;;;;1935817;72;22188;-79
2022/08/09 11:36:42;;;;;;;5.60;2.50;;;30.40;84.50;;;;;;1933489;72;38378;-79
2022/08/09 11:39:53;;;;;;;2.08;1.85;;;30.70;83.90;;;;;;1917324;75;21148;-80
2022/08/09 11:42:48;;;;;;;2.67;1.60;;;30.70;81.50;;;;;;1918565;73;21106;-80
2022/08/09 11:45:43;;;;;;;3.35;2.20;;;30.80;77.80;;;;;;1907018;75;21097;-80
2022/08/09 11:48:37;;;;;;;4.53;2.10;;;30.80;78.90;;;;;;1895052;75;21053;-80
2022/08/09 11:51:28;;;;;;;2.62;2.20;;;30.80;80.40;;;;;;1879991;75;21103;-80
2022/08/09 11:54:21;;;;;;;4.67;2.37;;;30.80;81.60;;;;;;1927887;74;21194;-80
2022/08/09 11:57:38;;;;;;;2.12;1.92;;;31.00;81.50;;;;;;1896199;75;21620;-80
2022/08/09 12:00:53;;;;;;;4.33;2.50;;;31.10;80.90;;;;;;1889729;75;21277;-80
2022/08/09 12:03:55;;;;;;;7.45;2.37;;;31.10;81.70;;;;;;1890558;75;21209;-80
2022/08/09 12:06:53;;;;;;;4.08;2.40;;;31.10;81.30;;;;;;1868175;76;21493;-81
2022/08/09 12:09:48;;;;;;;3.00;2.42;;;31.30;81.70;;;;;;1892422;76;21538;-80
2022/08/09 12:15:28;;;;;;;5.05;2.37;;;31.40;81.70;;;;;;1938276;72;22562;-81
2022/08/09 12:21:01;;;;;;;3.90;2.40;;;31.40;81.90;;;;;;1939854;72;22323;-80
2022/08/09 12:24:09;;;;;;;4.85;2.42;;;31.50;82.60;;;;;;1874700;75;21121;-80
2022/08/09 12:27:00;;;;;;;6.22;2.33;;;31.60;82.00;;;;;;1879528;75;21169;-80
2022/08/09 12:29:57;;;;;;;5.55;2.20;;;31.40;81.80;;;;;;1895388;75;21089;-81
2022/08/09 12:35:33;;;;;;;4.33;2.08;;;31.60;80.50;;;;;;1938702;72;22175;-77
2022/08/09 12:38:29;;;;;;;2.98;2.10;;;31.70;80.70;;;;;;1899771;75;21070;-78
2022/08/09 12:41:28;;;;;;;4.95;1.85;;;31.70;80.70;;;;;;1884508;76;21214;-79
2022/08/09 12:47:06;;;;;;;4.08;2.33;;;31.90;79.50;;;;;;1944478;72;22600;-79
2022/08/09 12:50:18;;;;;;;2.92;2.10;;;31.90;79.50;;;;;;1920877;73;21635;-79
2022/08/09 12:56:14;;;;;;;2.20;2.00;;;32.10;78.50;;;;;;1948302;72;22585;-79
2022/08/09 12:59:09;;;;;;;3.20;2.22;;;32.00;78.10;;;;;;1884467;75;21118;-79
2022/08/09 13:02:06;;;;;;;5.83;2.35;;;31.90;77.40;;;;;;1884538;75;21175;-79
2022/08/09 13:05:03;;;;;;;4.05;2.80;;;32.10;76.10;;;;;;1887506;75;21230;-79
2022/08/09 13:08:15;;;;;;;2.67;2.47;;;32.10;76.30;;;;;;1912135;75;21219;-79
2022/08/09 13:11:08;;;;;;;6.08;2.65;;;32.30;75.70;;;;;;1894480;75;21083;-79
2022/08/09 13:14:01;;;;;;;3.00;2.58;;;32.40;74.60;;;;;;1897349;73;21125;-79
2022/08/09 13:16:56;;;;;;;2.87;2.30;;;32.40;75.60;;;;;;1896680;75;21071;-78
2022/08/09 13:19:47;;;;;;;2.92;2.00;;;32.30;75.70;;;;;;1905964;75;21149;-79
2022/08/09 13:25:40;;;;;;;2.27;2.10;;;32.40;75.80;;;;;;1931735;72;22606;-79
2022/08/09 13:28:46;;;;;;;4.22;2.27;;;32.30;76.30;;;;;;1912731;74;21071;-80
2022/08/09 13:32:00;;;;;;;6.80;2.10;;;32.40;76.50;;;;;;1893799;75;21054;-79
2022/08/09 13:34:53;;;;;;;3.33;2.10;;;32.60;76.10;;;;;;1888200;75;21111;-80
2022/08/09 13:40:25;;;;;;;3.00;1.95;;;32.90;75.10;;;;;;1934785;72;22134;-80
2022/08/09 13:43:31;;;;;;;8.58;2.50;;;33.00;75.40;;;;;;1886473;75;21063;-79
2022/08/09 13:46:31;;;;;;;3.12;2.40;;;32.90;75.70;;;;;;1881432;75;21169;-80
2022/08/09 13:49:37;;;;;;;5.80;2.22;;;32.80;74.20;;;;;;1892533;75;21122;-80
2022/08/09 13:52:32;;;;;;;4.28;2.17;;;32.70;73.90;;;;;;1889503;75;21261;-80
2022/08/09 13:55:23;;;;;;;3.12;1.80;;;32.80;73.50;;;;;;1900511;75;21567;-80
2022/08/09 13:58:16;;;;;;;2.55;2.20;;;32.80;73.20;;;;;;1878766;75;21162;-80
2022/08/09 14:01:09;;;;;;;1.95;1.82;;;32.90;73.50;;;;;;1873124;75;21624;-80
2022/08/09 14:04:01;;;;;;;7.40;2.27;;;33.10;72.70;;;;;;1872835;75;21075;-80
2022/08/09 14:06:55;;;;;;;2.80;1.95;;;33.80;71.70;;;;;;1874221;75;21117;-80
2022/08/09 14:09:50;;;;;;;4.22;2.65;;;34.30;70.50;;;;;;1887470;75;21098;-80
2022/08/09 14:12:42;;;;;;;2.98;2.00;;;34.50;69.10;;;;;;1895369;75;21096;-80
2022/08/09 14:15:34;;;;;;;2.20;2.00;;;34.70;67.20;;;;;;1875600;75;21160;-80
2022/08/09 14:21:16;;;;;;;3.77;2.10;;;35.00;66.60;;;;;;1945498;72;22170;-81
2022/08/09 14:24:21;;;;;;;2.40;2.20;;;35.00;65.40;;;;;;1893022;75;21554;-81
2022/08/09 14:27:14;;;;;;;4.10;2.22;;;35.30;65.20;;;;;;1906557;75;21494;-81
2022/08/09 14:30:08;;;;;;;2.45;1.62;;;35.70;64.00;;;;;;1890265;75;21063;-84
2022/08/09 14:35:39;;;;;;;3.37;2.05;;;35.90;62.10;;;;;;1948090;72;22098;-78
2022/08/09 14:38:32;;;;;;;2.37;2.17;;;35.80;61.80;;;;;;1911815;74;21137;-80
2022/08/09 14:41:25;;;;;;;3.10;2.00;;;35.70;61.80;;;;;;1900572;75;21062;-81
2022/08/09 14:44:26;;;;;;;2.65;2.12;;;36.10;60.80;;;;;;1911751;75;21613;-79
2022/08/09 14:47:20;;;;;;;3.17;2.30;;;36.40;59.50;;;;;;1904167;75;21124;-79
2022/08/09 14:50:14;;;;;;;6.53;2.30;;;36.10;59.30;;;;;;1900440;75;21114;-81
2022/08/09 14:53:09;;;;;;;2.30;2.10;;;36.20;59.20;;;;;;1897823;75;21098;-81
2022/08/09 14:56:01;;;;;;;3.62;2.20;;;36.40;58.60;;;;;;1899558;75;21121;-81
2022/08/09 14:58:55;;;;;;;2.60;2.40;;;36.40;58.90;;;;;;1905485;75;21644;-80
2022/08/09 15:01:48;;;;;;;2.25;2.05;;;36.80;57.00;;;;;;1891741;75;21066;-81
2022/08/09 15:04:48;;;;;;;4.37;2.50;;;36.50;56.90;;;;;;1900224;75;21141;-80
2022/08/09 15:07:44;;;;;;;3.02;2.42;;;36.40;57.10;;;;;;1898535;75;21079;-80
2022/08/09 15:10:37;;;;;;;3.37;2.40;;;36.50;57.20;;;;;;1894364;75;21232;-80
2022/08/09 15:16:10;;;;;;;2.65;2.45;;;37.20;55.40;;;;;;1943056;72;22189;-79
2022/08/09 15:19:01;;;;;;;3.60;2.52;;;37.30;54.60;;;;;;1930013;73;21074;-80
2022/08/09 15:24:34;;;;;;;2.90;2.22;;;37.60;55.20;;;;;;1931446;72;22126;-82
2022/08/09 15:30:17;;;;;;;2.45;2.25;;;37.50;54.30;;;;;;1934331;72;22236;-83
2022/08/09 15:33:14;;;;;;;2.30;2.20;;;37.70;54.10;;;;;;1880231;75;21158;-86
2022/08/09 15:36:07;;;;;;;3.30;2.30;;;37.70;53.60;;;;;;1872990;76;21059;-82
2022/08/09 15:38:59;;;;;;;2.58;2.37;;;37.80;53.70;;;;;;1884683;75;21632;-82
2022/08/09 15:41:53;;;;;;;3.20;2.50;;;37.90;53.20;;;;;;1879365;75;21095;-80
2022/08/09 15:44:45;;;;;;;2.62;2.40;;;37.70;52.80;;;;;;1885180;75;21130;-81
2022/08/09 15:50:17;;;;;;;2.77;2.58;;;38.10;52.10;;;;;;1950040;72;22223;-81
2022/08/09 15:55:55;;;;;;;3.12;2.80;;;38.10;51.70;;;;;;1934944;72;22203;-80
2022/08/09 16:01:37;;;;;;;3.00;2.30;;;38.50;50.70;;;;;;1932913;72;22157;-78
2022/08/09 16:04:31;;;;;;;2.70;2.50;;;38.20;50.80;;;;;;1895574;75;21089;-83
2022/08/09 16:07:24;;;;;;;2.87;2.67;;;38.40;50.90;;;;;;1893343;75;21139;-83
2022/08/09 16:10:16;;;;;;;3.10;2.80;;;38.90;50.40;;;;;;1892481;75;21090;-84
2022/08/09 16:13:11;;;;;;;5.40;2.67;;;38.90;50.00;;;;;;1911234;75;21117;-84
2022/08/09 16:16:10;;;;;;;4.35;2.62;;;38.40;50.10;;;;;;1908159;74;21133;-83
2022/08/09 16:19:22;;;;;;;4.72;2.70;;;38.80;49.90;;;;;;1888605;75;21051;-82
2022/08/09 16:22:13;;;;;;;3.33;2.70;;;38.80;49.50;;;;;;1904840;75;21079;-80
2022/08/09 16:25:08;;;;;;;2.50;2.30;;;38.30;49.80;;;;;;1905762;75;21216;-79
2022/08/09 16:30:41;;;;;;;2.70;2.50;;;38.10;50.00;;;;;;1935653;72;22182;-82
2022/08/09 16:33:34;;;;;;;4.30;2.50;;;38.40;49.80;;;;;;1942472;73;21097;-81
2022/08/09 16:36:28;;;;;;;5.10;2.40;;;37.90;49.70;;;;;;1923551;74;21058;-80
2022/08/09 16:41:59;;;;;;;2.80;2.00;;;37.90;49.80;;;;;;1941644;72;22162;-81
2022/08/09 16:44:52;;;;;;;2.55;2.10;;;37.80;49.90;;;;;;1928078;73;21059;-82
2022/08/09 16:47:45;;;;;;;2.00;1.90;;;37.70;50.00;;;;;;1895562;75;21110;-82
2022/08/09 16:50:38;;;;;;;2.30;2.10;;;37.90;49.50;;;;;;1929819;73;21707;-82
2022/08/09 16:56:10;;;;;;;3.05;2.25;;;37.50;49.90;;;;;;1925896;72;22185;-81
2022/08/09 16:59:03;;;;;;;2.92;2.10;;;37.30;49.90;;;;;;1905072;75;21063;-82
2022/08/09 17:01:55;;;;;;;5.45;2.37;;;37.50;49.80;;;;;;1890047;75;21144;-83
2022/08/09 17:04:49;;;;;;;3.77;2.35;;;37.10;50.20;;;;;;1898693;75;21051;-82
2022/08/09 17:10:22;;;;;;;3.08;2.08;;;36.50;51.00;;;;;;1956133;72;22121;-81
2022/08/09 17:13:13;;;;;;;2.60;2.15;;;36.50;50.80;;;;;;1929317;73;21173;-82
2022/08/09 17:16:05;;;;;;;3.08;2.20;;;36.50;50.80;;;;;;1925447;73;21091;-77
2022/08/09 17:18:57;;;;;;;4.55;2.40;;;36.40;51.00;;;;;;1950733;73;21078;-83
2022/08/09 17:21:49;;;;;;;2.55;2.12;;;36.00;51.40;;;;;;1922030;73;21099;-81
2022/08/09 17:24:44;;;;;;;3.10;2.33;;;35.80;51.80;;;;;;1931373;73;21117;-79
2022/08/09 17:30:17;;;;;;;3.10;2.35;;;34.80;53.10;;;;;;1927220;72;22608;-79
2022/08/09 17:33:10;;;;;;;3.12;2.40;;;34.50;53.50;;;;;;1914146;75;21577;-82
2022/08/09 17:36:05;;;;;;;2.60;2.40;;;34.30;53.80;;;;;;1904933;75;21125;-79
2022/08/09 17:39:00;;;;;;;3.45;2.52;;;34.40;53.70;;;;;;1908559;73;21101;-80
2022/08/09 17:44:34;;;;;;;3.27;2.50;;;34.30;53.60;;;;;;1924798;72;22198;-80
2022/08/09 17:50:10;;;;;;;3.55;2.50;;;34.30;53.60;;;;;;1927505;72;22141;-81
2022/08/09 17:53:03;;;;;;;2.92;2.70;;;34.20;53.90;;;;;;1893835;75;21482;-79
2022/08/09 17:58:38;;;;;;;3.75;2.40;;;33.40;55.00;;;;;;1923992;72;22232;-79